sensor_id;sensor_type;location;lat;lon;timestamp;temperature;humidity
23507;DHT22;11930;53.076;18.250;2022-08-21T00:02:14;20.70;99.90
23507;DHT22;11930;53.076;18.250;2022-08-21T00:04:40;20.70;99.90
23507;DHT22;11930;53.076;18.250;2022-08-21T00:07:06;20.70;99.90
23507;DHT22;11930;53.076;18.250;2022-08-21T00:09:32;20.70;99.90
23507;DHT22;11930;53.076;18.250;2022-08-21T00:11:58;20.60;99.90
23507;DHT22;11930;53.076;18.250;2022-08-21T00:14:24;20.60;99.90
23507;DHT22;11930;53.076;18.250;2022-08-21T00:16:50;20.60;99.90
23507;DHT22;11930;53.076;18.250;2022-08-21T00:19:16;20.60;99.90
23507;DHT22;11930;53.076;18.250;2022-08-21T00:21:43;20.60;99.90
23507;DHT22;11930;53.076;18.250;2022-08-21T00:24:09;20.60;99.90
23507;DHT22;11930;53.076;18.250;2022-08-21T00:26:35;20.60;99.90
23507;DHT22;11930;53.076;18.250;2022-08-21T00:29:01;20.60;99.90
23507;DHT22;11930;53.076;18.250;2022-08-21T00:31:27;20.60;99.90
23507;DHT22;11930;53.076;18.250;2022-08-21T00:33:53;20.60;99.90
23507;DHT22;11930;53.076;18.250;2022-08-21T00:36:19;20.60;99.90
23507;DHT22;11930;53.076;18.250;2022-08-21T00:38:45;20.60;99.90
23507;DHT22;11930;53.076;18.250;2022-08-21T00:41:12;20.60;99.90
23507;DHT22;11930;53.076;18.250;2022-08-21T00:43:39;20.60;99.90
23507;DHT22;11930;53.076;18.250;2022-08-21T00:46:06;20.60;99.90
23507;DHT22;11930;53.076;18.250;2022-08-21T00:48:32;20.50;99.90
23507;DHT22;11930;53.076;18.250;2022-08-21T00:51:09;20.50;99.90
23507;DHT22;11930;53.076;18.250;2022-08-21T00:53:38;20.50;99.90
23507;DHT22;11930;53.076;18.250;2022-08-21T00:56:07;20.60;99.90
23507;DHT22;11930;53.076;18.250;2022-08-21T00:58:35;20.60;99.90
23507;DHT22;11930;53.076;18.250;2022-08-21T01:01:03;20.60;99.90
23507;DHT22;11930;53.076;18.250;2022-08-21T01:03:31;20.60;99.90
23507;DHT22;11930;53.076;18.250;2022-08-21T01:05:58;20.60;99.90
23507;DHT22;11930;53.076;18.250;2022-08-21T01:08:24;20.60;99.90
23507;DHT22;11930;53.076;18.250;2022-08-21T01:10:52;20.60;99.90
23507;DHT22;11930;53.076;18.250;2022-08-21T01:13:19;20.60;99.90
23507;DHT22;11930;53.076;18.250;2022-08-21T01:15:48;20.70;99.90
23507;DHT22;11930;53.076;18.250;2022-08-21T01:18:16;20.70;99.90
23507;DHT22;11930;53.076;18.250;2022-08-21T01:23:23;20.70;99.90
23507;DHT22;11930;53.076;18.250;2022-08-21T01:25:49;20.80;99.90
23507;DHT22;11930;53.076;18.250;2022-08-21T01:28:15;20.80;99.90
23507;DHT22;11930;53.076;18.250;2022-08-21T01:30:43;20.80;99.90
23507;DHT22;11930;53.076;18.250;2022-08-21T01:33:09;20.80;99.90
23507;DHT22;11930;53.076;18.250;2022-08-21T01:35:36;20.80;99.90
23507;DHT22;11930;53.076;18.250;2022-08-21T01:38:02;20.70;99.90
23507;DHT22;11930;53.076;18.250;2022-08-21T01:40:28;20.80;99.90
23507;DHT22;11930;53.076;18.250;2022-08-21T01:42:55;20.80;99.90
23507;DHT22;11930;53.076;18.250;2022-08-21T01:45:21;20.70;99.90
23507;DHT22;11930;53.076;18.250;2022-08-21T01:47:47;20.70;99.90
23507;DHT22;11930;53.076;18.250;2022-08-21T01:50:16;20.60;99.90
23507;DHT22;11930;53.076;18.250;2022-08-21T01:52:43;20.70;99.90
23507;DHT22;11930;53.076;18.250;2022-08-21T01:55:10;20.70;99.90
23507;DHT22;11930;53.076;18.250;2022-08-21T01:57:36;20.70;99.90
23507;DHT22;11930;53.076;18.250;2022-08-21T02:00:05;20.70;99.90
23507;DHT22;11930;53.076;18.250;2022-08-21T02:02:38;20.70;99.90
23507;DHT22;11930;53.076;18.250;2022-08-21T02:05:05;20.70;99.90
23507;DHT22;11930;53.076;18.250;2022-08-21T02:07:50;20.60;99.90
23507;DHT22;11930;53.076;18.250;2022-08-21T02:10:25;20.60;99.90
23507;DHT22;11930;53.076;18.250;2022-08-21T02:12:52;20.50;99.90
23507;DHT22;11930;53.076;18.250;2022-08-21T02:15:19;20.50;99.90
23507;DHT22;11930;53.076;18.250;2022-08-21T02:17:50;20.40;99.90
23507;DHT22;11930;53.076;18.250;2022-08-21T02:20:23;20.40;99.90
23507;DHT22;11930;53.076;18.250;2022-08-21T02:22:50;20.30;99.90
23507;DHT22;11930;53.076;18.250;2022-08-21T02:25:18;20.30;99.90
23507;DHT22;11930;53.076;18.250;2022-08-21T02:27:45;20.30;99.90
23507;DHT22;11930;53.076;18.250;2022-08-21T02:30:23;20.30;99.90
23507;DHT22;11930;53.076;18.250;2022-08-21T02:32:49;20.30;99.90
23507;DHT22;11930;53.076;18.250;2022-08-21T02:35:15;20.30;99.90
23507;DHT22;11930;53.076;18.250;2022-08-21T02:37:46;20.30;99.90
23507;DHT22;11930;53.076;18.250;2022-08-21T02:40:13;20.30;99.90
23507;DHT22;11930;53.076;18.250;2022-08-21T02:42:40;20.30;99.90
23507;DHT22;11930;53.076;18.250;2022-08-21T02:45:07;20.20;99.90
23507;DHT22;11930;53.076;18.250;2022-08-21T02:47:33;20.20;99.90
23507;DHT22;11930;53.076;18.250;2022-08-21T02:49:59;20.20;99.90
23507;DHT22;11930;53.076;18.250;2022-08-21T02:52:25;20.20;99.90
23507;DHT22;11930;53.076;18.250;2022-08-21T02:54:51;20.20;99.90
23507;DHT22;11930;53.076;18.250;2022-08-21T02:57:17;20.20;99.90
23507;DHT22;11930;53.076;18.250;2022-08-21T02:59:43;20.20;99.90
23507;DHT22;11930;53.076;18.250;2022-08-21T03:02:09;20.20;99.90
23507;DHT22;11930;53.076;18.250;2022-08-21T03:04:36;20.20;99.90
23507;DHT22;11930;53.076;18.250;2022-08-21T03:07:02;20.20;99.90
23507;DHT22;11930;53.076;18.250;2022-08-21T03:09:28;20.20;99.90
23507;DHT22;11930;53.076;18.250;2022-08-21T03:11:54;20.10;99.90
23507;DHT22;11930;53.076;18.250;2022-08-21T03:14:20;20.10;99.90
23507;DHT22;11930;53.076;18.250;2022-08-21T03:16:46;20.10;99.90
23507;DHT22;11930;53.076;18.250;2022-08-21T03:19:12;20.00;99.90
23507;DHT22;11930;53.076;18.250;2022-08-21T03:21:38;20.00;99.90
23507;DHT22;11930;53.076;18.250;2022-08-21T03:24:04;20.00;99.90
23507;DHT22;11930;53.076;18.250;2022-08-21T03:26:31;20.00;99.90
23507;DHT22;11930;53.076;18.250;2022-08-21T03:28:56;20.00;99.90
23507;DHT22;11930;53.076;18.250;2022-08-21T03:31:24;20.00;99.90
23507;DHT22;11930;53.076;18.250;2022-08-21T03:33:52;20.00;99.90
23507;DHT22;11930;53.076;18.250;2022-08-21T03:36:20;20.00;99.90
23507;DHT22;11930;53.076;18.250;2022-08-21T03:38:46;20.00;99.90
23507;DHT22;11930;53.076;18.250;2022-08-21T03:41:12;20.00;99.90
23507;DHT22;11930;53.076;18.250;2022-08-21T03:43:38;20.00;99.90
23507;DHT22;11930;53.076;18.250;2022-08-21T03:46:05;20.00;99.90
23507;DHT22;11930;53.076;18.250;2022-08-21T03:48:33;20.00;99.90
23507;DHT22;11930;53.076;18.250;2022-08-21T03:50:59;20.00;99.90
23507;DHT22;11930;53.076;18.250;2022-08-21T03:53:25;20.00;99.90
23507;DHT22;11930;53.076;18.250;2022-08-21T03:55:52;20.00;99.90
23507;DHT22;11930;53.076;18.250;2022-08-21T03:58:21;20.00;99.90
23507;DHT22;11930;53.076;18.250;2022-08-21T04:00:50;20.10;99.90
23507;DHT22;11930;53.076;18.250;2022-08-21T04:03:17;20.10;99.90
23507;DHT22;11930;53.076;18.250;2022-08-21T04:05:44;20.20;99.90
23507;DHT22;11930;53.076;18.250;2022-08-21T04:08:11;20.20;99.90
23507;DHT22;11930;53.076;18.250;2022-08-21T04:10:39;20.30;99.90
23507;DHT22;11930;53.076;18.250;2022-08-21T04:13:07;20.30;99.90
23507;DHT22;11930;53.076;18.250;2022-08-21T04:15:34;20.40;99.90
23507;DHT22;11930;53.076;18.250;2022-08-21T04:18:01;20.40;99.90
23507;DHT22;11930;53.076;18.250;2022-08-21T04:20:27;20.40;99.90
23507;DHT22;11930;53.076;18.250;2022-08-21T04:22:53;20.50;99.90
23507;DHT22;11930;53.076;18.250;2022-08-21T04:25:21;20.50;99.90
23507;DHT22;11930;53.076;18.250;2022-08-21T04:27:48;20.50;99.90
23507;DHT22;11930;53.076;18.250;2022-08-21T04:30:15;20.60;99.90
23507;DHT22;11930;53.076;18.250;2022-08-21T04:32:46;20.60;99.90
23507;DHT22;11930;53.076;18.250;2022-08-21T04:35:14;20.70;99.90
23507;DHT22;11930;53.076;18.250;2022-08-21T04:37:40;20.70;99.90
23507;DHT22;11930;53.076;18.250;2022-08-21T04:40:07;20.70;99.90
23507;DHT22;11930;53.076;18.250;2022-08-21T04:42:45;20.70;99.90
23507;DHT22;11930;53.076;18.250;2022-08-21T04:45:41;20.70;99.90
23507;DHT22;11930;53.076;18.250;2022-08-21T04:48:10;20.80;99.90
23507;DHT22;11930;53.076;18.250;2022-08-21T04:51:10;20.80;99.90
23507;DHT22;11930;53.076;18.250;2022-08-21T04:53:44;20.70;99.90
23507;DHT22;11930;53.076;18.250;2022-08-21T04:56:35;20.70;99.90
23507;DHT22;11930;53.076;18.250;2022-08-21T04:59:06;20.80;99.90
23507;DHT22;11930;53.076;18.250;2022-08-21T05:01:41;20.70;99.90
23507;DHT22;11930;53.076;18.250;2022-08-21T05:04:11;20.70;99.90
23507;DHT22;11930;53.076;18.250;2022-08-21T05:06:41;20.70;99.90
23507;DHT22;11930;53.076;18.250;2022-08-21T05:09:13;20.70;99.90
23507;DHT22;11930;53.076;18.250;2022-08-21T05:11:40;20.60;99.90
23507;DHT22;11930;53.076;18.250;2022-08-21T05:14:07;20.60;99.90
23507;DHT22;11930;53.076;18.250;2022-08-21T05:16:33;20.70;99.90
23507;DHT22;11930;53.076;18.250;2022-08-21T05:19:00;20.70;99.90
23507;DHT22;11930;53.076;18.250;2022-08-21T05:21:26;20.70;99.90
23507;DHT22;11930;53.076;18.250;2022-08-21T05:23:52;20.80;99.90
23507;DHT22;11930;53.076;18.250;2022-08-21T05:26:20;20.70;99.90
23507;DHT22;11930;53.076;18.250;2022-08-21T05:28:46;20.80;99.90
23507;DHT22;11930;53.076;18.250;2022-08-21T05:31:12;20.90;99.90
23507;DHT22;11930;53.076;18.250;2022-08-21T05:33:39;20.90;99.90
23507;DHT22;11930;53.076;18.250;2022-08-21T05:36:05;20.90;99.90
23507;DHT22;11930;53.076;18.250;2022-08-21T05:38:31;20.90;99.90
23507;DHT22;11930;53.076;18.250;2022-08-21T05:40:58;20.90;99.90
23507;DHT22;11930;53.076;18.250;2022-08-21T05:43:24;20.90;99.90
23507;DHT22;11930;53.076;18.250;2022-08-21T05:45:50;21.00;99.90
23507;DHT22;11930;53.076;18.250;2022-08-21T05:48:22;21.00;99.90
23507;DHT22;11930;53.076;18.250;2022-08-21T05:50:50;21.10;99.90
23507;DHT22;11930;53.076;18.250;2022-08-21T05:53:19;21.10;99.90
23507;DHT22;11930;53.076;18.250;2022-08-21T05:55:45;21.10;99.90
23507;DHT22;11930;53.076;18.250;2022-08-21T05:58:13;21.10;99.90
23507;DHT22;11930;53.076;18.250;2022-08-21T06:00:39;21.20;99.90
23507;DHT22;11930;53.076;18.250;2022-08-21T06:03:11;21.20;99.90
23507;DHT22;11930;53.076;18.250;2022-08-21T06:05:37;21.20;99.90
23507;DHT22;11930;53.076;18.250;2022-08-21T06:08:04;21.20;99.90
23507;DHT22;11930;53.076;18.250;2022-08-21T06:10:30;21.20;99.90
23507;DHT22;11930;53.076;18.250;2022-08-21T06:12:56;21.20;99.90
23507;DHT22;11930;53.076;18.250;2022-08-21T06:15:22;21.20;99.90
23507;DHT22;11930;53.076;18.250;2022-08-21T06:17:52;21.20;99.90
23507;DHT22;11930;53.076;18.250;2022-08-21T06:20:22;21.20;99.90
23507;DHT22;11930;53.076;18.250;2022-08-21T06:22:48;21.20;99.90
23507;DHT22;11930;53.076;18.250;2022-08-21T06:25:14;21.20;99.90
23507;DHT22;11930;53.076;18.250;2022-08-21T06:28:10;21.30;99.90
23507;DHT22;11930;53.076;18.250;2022-08-21T06:30:39;21.30;99.90
23507;DHT22;11930;53.076;18.250;2022-08-21T06:33:06;21.40;99.90
23507;DHT22;11930;53.076;18.250;2022-08-21T06:35:33;21.40;99.90
23507;DHT22;11930;53.076;18.250;2022-08-21T06:38:01;21.40;99.90
23507;DHT22;11930;53.076;18.250;2022-08-21T06:40:31;21.50;99.90
23507;DHT22;11930;53.076;18.250;2022-08-21T06:43:09;21.50;99.90
23507;DHT22;11930;53.076;18.250;2022-08-21T06:45:36;21.70;99.90
23507;DHT22;11930;53.076;18.250;2022-08-21T06:48:04;21.70;99.90
23507;DHT22;11930;53.076;18.250;2022-08-21T06:50:56;21.80;99.90
23507;DHT22;11930;53.076;18.250;2022-08-21T06:54:08;22.00;99.90
23507;DHT22;11930;53.076;18.250;2022-08-21T06:56:38;22.10;99.90
23507;DHT22;11930;53.076;18.250;2022-08-21T06:59:05;22.20;99.90
23507;DHT22;11930;53.076;18.250;2022-08-21T07:01:31;22.30;99.90
23507;DHT22;11930;53.076;18.250;2022-08-21T07:03:58;22.30;99.90
23507;DHT22;11930;53.076;18.250;2022-08-21T07:06:24;22.30;99.90
23507;DHT22;11930;53.076;18.250;2022-08-21T07:08:54;22.20;99.90
23507;DHT22;11930;53.076;18.250;2022-08-21T07:11:28;22.10;99.90
23507;DHT22;11930;53.076;18.250;2022-08-21T07:13:59;22.00;99.90
23507;DHT22;11930;53.076;18.250;2022-08-21T07:16:25;22.00;99.90
23507;DHT22;11930;53.076;18.250;2022-08-21T07:21:42;22.00;99.90
23507;DHT22;11930;53.076;18.250;2022-08-21T07:24:41;22.00;99.90
23507;DHT22;11930;53.076;18.250;2022-08-21T07:27:37;22.00;99.90
23507;DHT22;11930;53.076;18.250;2022-08-21T07:30:34;21.90;99.90
23507;DHT22;11930;53.076;18.250;2022-08-21T07:36:00;21.90;99.90
23507;DHT22;11930;53.076;18.250;2022-08-21T07:38:30;21.90;99.90
23507;DHT22;11930;53.076;18.250;2022-08-21T07:40:57;21.80;99.90
23507;DHT22;11930;53.076;18.250;2022-08-21T07:43:25;21.70;99.90
23507;DHT22;11930;53.076;18.250;2022-08-21T07:45:51;21.60;99.90
23507;DHT22;11930;53.076;18.250;2022-08-21T07:48:22;21.60;99.90
23507;DHT22;11930;53.076;18.250;2022-08-21T07:50:51;21.50;99.90
23507;DHT22;11930;53.076;18.250;2022-08-21T07:53:17;21.50;99.90
23507;DHT22;11930;53.076;18.250;2022-08-21T07:55:44;21.40;99.90
23507;DHT22;11930;53.076;18.250;2022-08-21T07:58:10;21.40;99.90
23507;DHT22;11930;53.076;18.250;2022-08-21T08:00:36;21.40;99.90
23507;DHT22;11930;53.076;18.250;2022-08-21T08:03:04;21.30;99.90
23507;DHT22;11930;53.076;18.250;2022-08-21T08:05:31;21.40;99.90
23507;DHT22;11930;53.076;18.250;2022-08-21T08:07:58;21.40;99.90
23507;DHT22;11930;53.076;18.250;2022-08-21T08:10:25;21.40;99.90
23507;DHT22;11930;53.076;18.250;2022-08-21T08:12:52;21.50;99.90
23507;DHT22;11930;53.076;18.250;2022-08-21T08:15:26;21.50;99.90
23507;DHT22;11930;53.076;18.250;2022-08-21T08:17:54;21.50;99.90
23507;DHT22;11930;53.076;18.250;2022-08-21T08:20:21;21.40;99.90
23507;DHT22;11930;53.076;18.250;2022-08-21T08:22:49;21.60;99.90
23507;DHT22;11930;53.076;18.250;2022-08-21T08:25:18;21.80;99.90
23507;DHT22;11930;53.076;18.250;2022-08-21T08:27:45;21.90;99.90
23507;DHT22;11930;53.076;18.250;2022-08-21T08:30:13;22.10;99.90
23507;DHT22;11930;53.076;18.250;2022-08-21T08:32:40;22.30;99.90
23507;DHT22;11930;53.076;18.250;2022-08-21T08:35:21;22.40;99.90
23507;DHT22;11930;53.076;18.250;2022-08-21T08:37:49;22.40;99.90
23507;DHT22;11930;53.076;18.250;2022-08-21T08:40:44;22.50;99.90
23507;DHT22;11930;53.076;18.250;2022-08-21T08:43:12;22.50;99.90
23507;DHT22;11930;53.076;18.250;2022-08-21T08:45:42;22.50;99.90
23507;DHT22;11930;53.076;18.250;2022-08-21T08:48:13;22.50;99.90
23507;DHT22;11930;53.076;18.250;2022-08-21T08:50:46;22.70;99.90
23507;DHT22;11930;53.076;18.250;2022-08-21T08:55:51;23.00;99.90
23507;DHT22;11930;53.076;18.250;2022-08-21T08:58:37;23.20;99.90
23507;DHT22;11930;53.076;18.250;2022-08-21T09:01:06;23.40;99.90
23507;DHT22;11930;53.076;18.250;2022-08-21T09:03:44;23.40;99.90
23507;DHT22;11930;53.076;18.250;2022-08-21T09:12:04;23.40;99.90
23507;DHT22;11930;53.076;18.250;2022-08-21T09:25:10;24.10;99.90
23507;DHT22;11930;53.076;18.250;2022-08-21T09:27:38;24.00;99.90
23507;DHT22;11930;53.076;18.250;2022-08-21T09:30:05;24.00;99.90
23507;DHT22;11930;53.076;18.250;2022-08-21T09:32:37;23.80;99.90
23507;DHT22;11930;53.076;18.250;2022-08-21T09:35:18;23.90;99.90
23507;DHT22;11930;53.076;18.250;2022-08-21T09:37:54;23.90;99.90
23507;DHT22;11930;53.076;18.250;2022-08-21T09:43:31;24.10;99.90
23507;DHT22;11930;53.076;18.250;2022-08-21T09:46:22;24.20;99.90
23507;DHT22;11930;53.076;18.250;2022-08-21T09:48:51;24.30;99.90
23507;DHT22;11930;53.076;18.250;2022-08-21T09:53:49;24.10;99.90
23507;DHT22;11930;53.076;18.250;2022-08-21T09:56:34;24.10;99.90
23507;DHT22;11930;53.076;18.250;2022-08-21T09:59:29;23.90;99.90
23507;DHT22;11930;53.076;18.250;2022-08-21T10:02:00;23.90;99.90
23507;DHT22;11930;53.076;18.250;2022-08-21T10:04:33;23.90;99.90
23507;DHT22;11930;53.076;18.250;2022-08-21T10:07:11;23.80;99.90
23507;DHT22;11930;53.076;18.250;2022-08-21T10:09:38;23.60;99.90
23507;DHT22;11930;53.076;18.250;2022-08-21T10:25:57;22.80;99.90
23507;DHT22;11930;53.076;18.250;2022-08-21T10:28:29;22.90;99.90
23507;DHT22;11930;53.076;18.250;2022-08-21T10:33:52;22.90;99.90
23507;DHT22;11930;53.076;18.250;2022-08-21T10:36:21;22.80;99.90
23507;DHT22;11930;53.076;18.250;2022-08-21T10:47:01;22.30;99.90
23507;DHT22;11930;53.076;18.250;2022-08-21T10:55:12;22.10;99.90
23507;DHT22;11930;53.076;18.250;2022-08-21T10:57:56;22.00;99.90
23507;DHT22;11930;53.076;18.250;2022-08-21T11:00:28;22.00;99.90
23507;DHT22;11930;53.076;18.250;2022-08-21T11:03:01;21.80;99.90
23507;DHT22;11930;53.076;18.250;2022-08-21T11:08:14;21.80;99.90
23507;DHT22;11930;53.076;18.250;2022-08-21T11:10:52;21.70;99.90
23507;DHT22;11930;53.076;18.250;2022-08-21T11:18:36;21.50;99.90
23507;DHT22;11930;53.076;18.250;2022-08-21T11:21:26;21.50;99.90
23507;DHT22;11930;53.076;18.250;2022-08-21T11:26:41;21.50;99.90
23507;DHT22;11930;53.076;18.250;2022-08-21T11:29:18;21.50;99.90
23507;DHT22;11930;53.076;18.250;2022-08-21T11:43:46;21.70;99.90
23507;DHT22;11930;53.076;18.250;2022-08-21T11:47:01;21.70;99.90
23507;DHT22;11930;53.076;18.250;2022-08-21T11:52:33;21.70;99.90
23507;DHT22;11930;53.076;18.250;2022-08-21T11:55:01;21.70;99.90
23507;DHT22;11930;53.076;18.250;2022-08-21T11:57:39;21.80;99.90
23507;DHT22;11930;53.076;18.250;2022-08-21T12:00:13;21.70;99.90
23507;DHT22;11930;53.076;18.250;2022-08-21T12:02:52;21.80;99.90
23507;DHT22;11930;53.076;18.250;2022-08-21T12:05:52;21.80;99.90
23507;DHT22;11930;53.076;18.250;2022-08-21T12:08:25;21.70;99.90
23507;DHT22;11930;53.076;18.250;2022-08-21T12:11:23;21.60;99.90
23507;DHT22;11930;53.076;18.250;2022-08-21T12:16:43;21.60;99.90
23507;DHT22;11930;53.076;18.250;2022-08-21T12:19:56;21.60;99.90
23507;DHT22;11930;53.076;18.250;2022-08-21T12:23:03;21.50;99.90
23507;DHT22;11930;53.076;18.250;2022-08-21T12:25:46;21.40;99.90
23507;DHT22;11930;53.076;18.250;2022-08-21T12:28:23;21.10;99.90
23507;DHT22;11930;53.076;18.250;2022-08-21T12:30:54;21.10;99.90
23507;DHT22;11930;53.076;18.250;2022-08-21T12:33:37;21.10;99.90
23507;DHT22;11930;53.076;18.250;2022-08-21T12:36:15;21.00;99.90
23507;DHT22;11930;53.076;18.250;2022-08-21T12:38:59;20.90;99.90
23507;DHT22;11930;53.076;18.250;2022-08-21T12:44:54;20.70;99.90
23507;DHT22;11930;53.076;18.250;2022-08-21T12:47:29;20.60;99.90
23507;DHT22;11930;53.076;18.250;2022-08-21T12:50:20;20.50;99.90
23507;DHT22;11930;53.076;18.250;2022-08-21T12:52:59;20.60;99.90
23507;DHT22;11930;53.076;18.250;2022-08-21T12:55:31;20.50;99.90
23507;DHT22;11930;53.076;18.250;2022-08-21T12:57:59;20.40;99.90
23507;DHT22;11930;53.076;18.250;2022-08-21T13:00:33;20.40;99.90
23507;DHT22;11930;53.076;18.250;2022-08-21T13:03:06;20.30;99.90
23507;DHT22;11930;53.076;18.250;2022-08-21T13:05:36;20.10;99.90
23507;DHT22;11930;53.076;18.250;2022-08-21T13:08:13;20.10;99.90
23507;DHT22;11930;53.076;18.250;2022-08-21T13:11:16;20.10;99.90
23507;DHT22;11930;53.076;18.250;2022-08-21T13:13:51;20.10;99.90
23507;DHT22;11930;53.076;18.250;2022-08-21T13:16:26;20.00;99.90
23507;DHT22;11930;53.076;18.250;2022-08-21T13:18:59;20.00;99.90
23507;DHT22;11930;53.076;18.250;2022-08-21T13:21:34;20.10;99.90
23507;DHT22;11930;53.076;18.250;2022-08-21T13:24:25;20.20;99.90
23507;DHT22;11930;53.076;18.250;2022-08-21T13:27:00;20.10;99.90
23507;DHT22;11930;53.076;18.250;2022-08-21T13:29:32;20.10;99.90
23507;DHT22;11930;53.076;18.250;2022-08-21T13:32:02;20.10;99.90
23507;DHT22;11930;53.076;18.250;2022-08-21T13:34:35;20.00;99.90
23507;DHT22;11930;53.076;18.250;2022-08-21T13:37:13;19.90;99.90
23507;DHT22;11930;53.076;18.250;2022-08-21T13:39:40;19.90;99.90
23507;DHT22;11930;53.076;18.250;2022-08-21T13:42:11;19.90;99.90
23507;DHT22;11930;53.076;18.250;2022-08-21T13:44:44;19.90;99.90
23507;DHT22;11930;53.076;18.250;2022-08-21T13:47:24;19.80;99.90
23507;DHT22;11930;53.076;18.250;2022-08-21T13:49:53;19.80;99.90
23507;DHT22;11930;53.076;18.250;2022-08-21T13:52:26;19.70;99.90
23507;DHT22;11930;53.076;18.250;2022-08-21T13:54:58;19.50;99.90
23507;DHT22;11930;53.076;18.250;2022-08-21T13:57:28;19.50;99.90
23507;DHT22;11930;53.076;18.250;2022-08-21T14:00:16;19.50;99.90
23507;DHT22;11930;53.076;18.250;2022-08-21T14:02:47;19.40;99.90
23507;DHT22;11930;53.076;18.250;2022-08-21T14:05:21;19.40;99.90
23507;DHT22;11930;53.076;18.250;2022-08-21T14:08:10;19.40;99.90
23507;DHT22;11930;53.076;18.250;2022-08-21T14:10:48;19.30;99.90
23507;DHT22;11930;53.076;18.250;2022-08-21T14:21:42;19.50;99.90
23507;DHT22;11930;53.076;18.250;2022-08-21T14:24:27;19.50;99.90
23507;DHT22;11930;53.076;18.250;2022-08-21T14:26:57;19.40;99.90
23507;DHT22;11930;53.076;18.250;2022-08-21T14:29:26;19.40;99.90
23507;DHT22;11930;53.076;18.250;2022-08-21T14:31:58;19.30;99.90
23507;DHT22;11930;53.076;18.250;2022-08-21T14:34:27;19.20;99.90
23507;DHT22;11930;53.076;18.250;2022-08-21T14:36:55;19.20;99.90
23507;DHT22;11930;53.076;18.250;2022-08-21T14:39:20;19.20;99.90
23507;DHT22;11930;53.076;18.250;2022-08-21T14:41:47;19.10;99.90
23507;DHT22;11930;53.076;18.250;2022-08-21T14:44:16;19.10;99.90
23507;DHT22;11930;53.076;18.250;2022-08-21T14:46:43;19.10;99.90
23507;DHT22;11930;53.076;18.250;2022-08-21T14:49:12;19.00;99.90
23507;DHT22;11930;53.076;18.250;2022-08-21T14:51:39;19.00;99.90
23507;DHT22;11930;53.076;18.250;2022-08-21T14:54:07;19.00;99.90
23507;DHT22;11930;53.076;18.250;2022-08-21T14:56:34;19.00;99.90
23507;DHT22;11930;53.076;18.250;2022-08-21T14:59:04;19.00;99.90
23507;DHT22;11930;53.076;18.250;2022-08-21T15:01:39;19.00;99.90
23507;DHT22;11930;53.076;18.250;2022-08-21T15:04:05;19.00;99.90
23507;DHT22;11930;53.076;18.250;2022-08-21T15:06:34;19.00;99.90
23507;DHT22;11930;53.076;18.250;2022-08-21T15:09:05;19.00;99.90
23507;DHT22;11930;53.076;18.250;2022-08-21T15:11:33;18.90;99.90
23507;DHT22;11930;53.076;18.250;2022-08-21T15:14:02;18.90;99.90
23507;DHT22;11930;53.076;18.250;2022-08-21T15:16:29;19.00;99.90
23507;DHT22;11930;53.076;18.250;2022-08-21T15:18:58;19.00;99.90
23507;DHT22;11930;53.076;18.250;2022-08-21T15:21:25;19.00;99.90
23507;DHT22;11930;53.076;18.250;2022-08-21T15:23:50;19.00;99.90
23507;DHT22;11930;53.076;18.250;2022-08-21T15:26:17;18.90;99.90
23507;DHT22;11930;53.076;18.250;2022-08-21T15:28:43;18.90;99.90
23507;DHT22;11930;53.076;18.250;2022-08-21T15:31:09;18.90;99.90
23507;DHT22;11930;53.076;18.250;2022-08-21T15:33:35;18.90;99.90
23507;DHT22;11930;53.076;18.250;2022-08-21T15:36:01;18.90;99.90
23507;DHT22;11930;53.076;18.250;2022-08-21T15:38:27;18.90;99.90
23507;DHT22;11930;53.076;18.250;2022-08-21T15:41:08;18.80;99.90
23507;DHT22;11930;53.076;18.250;2022-08-21T15:43:41;18.80;99.90
23507;DHT22;11930;53.076;18.250;2022-08-21T15:46:13;18.80;99.90
23507;DHT22;11930;53.076;18.250;2022-08-21T15:48:40;18.80;99.90
23507;DHT22;11930;53.076;18.250;2022-08-21T15:51:06;18.80;99.90
23507;DHT22;11930;53.076;18.250;2022-08-21T15:53:33;18.80;99.90
23507;DHT22;11930;53.076;18.250;2022-08-21T15:56:05;18.80;99.90
23507;DHT22;11930;53.076;18.250;2022-08-21T15:58:31;18.80;99.90
23507;DHT22;11930;53.076;18.250;2022-08-21T16:00:59;18.80;99.90
23507;DHT22;11930;53.076;18.250;2022-08-21T16:03:36;18.80;99.90
23507;DHT22;11930;53.076;18.250;2022-08-21T16:06:02;18.70;99.90
23507;DHT22;11930;53.076;18.250;2022-08-21T16:08:28;18.80;99.90
23507;DHT22;11930;53.076;18.250;2022-08-21T16:10:54;18.80;99.90
23507;DHT22;11930;53.076;18.250;2022-08-21T16:13:36;18.80;99.90
23507;DHT22;11930;53.076;18.250;2022-08-21T16:16:02;18.80;99.90
23507;DHT22;11930;53.076;18.250;2022-08-21T16:18:29;18.80;99.90
23507;DHT22;11930;53.076;18.250;2022-08-21T16:20:55;18.80;99.90
23507;DHT22;11930;53.076;18.250;2022-08-21T16:23:49;18.80;99.90
23507;DHT22;11930;53.076;18.250;2022-08-21T16:26:32;18.70;99.90
23507;DHT22;11930;53.076;18.250;2022-08-21T16:29:03;18.60;99.90
23507;DHT22;11930;53.076;18.250;2022-08-21T16:31:40;18.50;99.90
23507;DHT22;11930;53.076;18.250;2022-08-21T16:34:06;18.50;99.90
23507;DHT22;11930;53.076;18.250;2022-08-21T16:36:32;18.50;99.90
23507;DHT22;11930;53.076;18.250;2022-08-21T16:38:59;18.50;99.90
23507;DHT22;11930;53.076;18.250;2022-08-21T16:41:29;18.50;99.90
23507;DHT22;11930;53.076;18.250;2022-08-21T16:44:05;18.50;99.90
23507;DHT22;11930;53.076;18.250;2022-08-21T16:46:38;18.40;99.90
23507;DHT22;11930;53.076;18.250;2022-08-21T16:49:04;18.30;99.90
23507;DHT22;11930;53.076;18.250;2022-08-21T16:51:31;18.30;99.90
23507;DHT22;11930;53.076;18.250;2022-08-21T16:53:58;18.40;99.90
23507;DHT22;11930;53.076;18.250;2022-08-21T16:56:25;18.40;99.90
23507;DHT22;11930;53.076;18.250;2022-08-21T16:58:53;18.40;99.90
23507;DHT22;11930;53.076;18.250;2022-08-21T17:01:21;18.40;99.90
23507;DHT22;11930;53.076;18.250;2022-08-21T17:03:49;18.40;99.90
23507;DHT22;11930;53.076;18.250;2022-08-21T17:06:16;18.40;99.90
23507;DHT22;11930;53.076;18.250;2022-08-21T17:08:43;18.40;99.90
23507;DHT22;11930;53.076;18.250;2022-08-21T17:11:35;18.40;99.90
23507;DHT22;11930;53.076;18.250;2022-08-21T17:14:06;18.40;99.90
23507;DHT22;11930;53.076;18.250;2022-08-21T17:16:32;18.30;99.90
23507;DHT22;11930;53.076;18.250;2022-08-21T17:18:58;18.30;99.90
23507;DHT22;11930;53.076;18.250;2022-08-21T17:21:25;18.30;99.90
23507;DHT22;11930;53.076;18.250;2022-08-21T17:23:51;18.40;99.90